Time;durP1;ratioP1;P1;durP2;ratioP2;P2;SDS_P1;SDS_P2;PMS_P1;PMS_P2;Temp;Humidity;BMP_temperature;BMP_pressure;BME280_temperature;BME280_humidity;BME280_pressure;Samples;Min_cycle;Max_cycle;Signal;HPM_P1;HPM_P2
2022/02/04 00:04:00;;;;;;;9.23;6.22;;;6.40;62.20;;;;;;5095734;28;20548;-69
2022/02/04 00:21:23;;;;;;;10.93;5.25;;;6.50;63.30;;;;;;5095101;28;20434;-69
2022/02/04 00:23:32;;;;;;;7.15;4.43;;;6.50;63.30;;;;;;5094150;28;20114;-69
2022/02/04 00:26:16;;;;;;;13.20;6.03;;;6.50;63.30;;;;;;5095177;28;20150;-69
2022/02/04 00:33:44;;;;;;;11.73;5.72;;;6.60;63.60;;;;;;5094781;28;20048;-69
2022/02/04 00:36:25;;;;;;;14.57;5.80;;;6.70;63.70;;;;;;5094991;28;20430;-69
2022/02/04 00:38:54;;;;;;;12.60;5.45;;;6.70;63.60;;;;;;5094970;28;20031;-69
2022/02/04 00:41:25;;;;;;;9.45;5.00;;;6.80;63.70;;;;;;5079712;28;20357;-69
2022/02/04 00:43:53;;;;;;;9.30;5.32;;;6.80;63.70;;;;;;5074272;28;20028;-68
2022/02/04 00:46:27;;;;;;;13.00;5.00;;;6.80;63.60;;;;;;5074517;28;20373;-69
2022/02/04 00:51:32;;;;;;;10.10;5.10;;;6.80;63.70;;;;;;5074442;28;20036;-69
2022/02/04 01:13:26;;;;;;;11.50;5.75;;;7.10;63.50;;;;;;5094324;28;20082;-69
2022/02/04 01:26:50;;;;;;;9.57;5.40;;;7.20;63.20;;;;;;5093655;28;20050;-69
2022/02/04 01:29:15;;;;;;;10.75;5.93;;;7.20;63.20;;;;;;5075734;28;20024;-69
2022/02/04 01:31:42;;;;;;;10.35;5.50;;;7.20;63.20;;;;;;5093897;28;20032;-69
2022/02/04 01:34:08;;;;;;;17.10;6.78;;;7.20;63.30;;;;;;5075051;28;20066;-69
2022/02/04 01:36:33;;;;;;;9.98;5.45;;;7.20;63.40;;;;;;5093794;28;20095;-69
2022/02/04 01:38:59;;;;;;;10.40;5.45;;;7.20;63.40;;;;;;5075480;28;20043;-69
2022/02/04 01:41:25;;;;;;;8.75;4.82;;;7.20;63.40;;;;;;5075508;28;20027;-69
2022/02/04 01:43:51;;;;;;;9.75;5.40;;;7.30;63.40;;;;;;5075424;28;20496;-69
2022/02/04 01:46:17;;;;;;;10.23;5.38;;;7.30;63.40;;;;;;5075597;28;20027;-69
2022/02/04 01:48:43;;;;;;;9.82;5.35;;;7.30;63.40;;;;;;5072050;28;20020;-69
2022/02/04 01:51:14;;;;;;;13.00;6.80;;;7.30;63.20;;;;;;5055471;28;20028;-69
2022/02/04 01:53:40;;;;;;;11.20;5.85;;;7.30;63.10;;;;;;5073097;28;20495;-69
2022/02/04 01:56:09;;;;;;;9.88;5.40;;;7.30;63.10;;;;;;5073392;28;20070;-69
2022/02/04 01:58:36;;;;;;;7.68;4.65;;;7.40;63.00;;;;;;5055313;28;20380;-69
2022/02/04 02:01:02;;;;;;;9.40;4.97;;;7.40;62.90;;;;;;5055272;28;20035;-69
2022/02/04 02:03:28;;;;;;;9.63;4.82;;;7.40;62.80;;;;;;5059802;28;20122;-71
2022/02/04 02:05:59;;;;;;;9.73;4.97;;;7.40;62.70;;;;;;5093347;28;20518;-69
2022/02/04 02:08:25;;;;;;;8.13;5.35;;;7.40;62.70;;;;;;5075039;28;20024;-69
2022/02/04 02:10:51;;;;;;;9.73;5.45;;;7.40;62.60;;;;;;5093343;28;20024;-69
2022/02/04 02:13:30;;;;;;;9.63;5.15;;;7.40;62.50;;;;;;5093133;28;20031;-69
2022/02/04 02:38:45;;;;;;;10.18;5.15;;;7.40;62.10;;;;;;5086262;28;20108;-69
2022/02/04 02:48:33;;;;;;;13.77;5.38;;;7.30;61.90;;;;;;5082834;28;20047;-69
2022/02/04 02:51:35;;;;;;;13.13;5.57;;;7.20;61.80;;;;;;5092821;28;20035;-69
2022/02/04 02:54:14;;;;;;;12.30;5.85;;;7.10;61.90;;;;;;5091771;28;20024;-69
2022/02/04 02:59:22;;;;;;;11.27;5.75;;;7.00;62.30;;;;;;5092948;28;20050;-69
2022/02/04 03:01:50;;;;;;;16.00;5.80;;;6.90;62.50;;;;;;5092543;28;20035;-69
2022/02/04 03:04:17;;;;;;;13.70;6.15;;;6.90;62.60;;;;;;5091494;28;20032;-69
2022/02/04 03:06:44;;;;;;;13.60;5.88;;;6.80;62.50;;;;;;5086242;28;20102;-68
2022/02/04 03:09:11;;;;;;;11.32;5.18;;;6.80;62.70;;;;;;5074512;28;20456;-69
2022/02/04 03:11:36;;;;;;;11.85;4.95;;;6.80;62.70;;;;;;5074411;28;20032;-69
2022/02/04 03:14:02;;;;;;;10.73;5.22;;;6.70;62.80;;;;;;5092496;28;20028;-69
2022/02/04 03:16:29;;;;;;;10.23;5.50;;;6.70;63.10;;;;;;5092710;28;20028;-70
2022/02/04 03:18:56;;;;;;;12.75;5.82;;;6.70;63.30;;;;;;5092762;28;20024;-69
2022/02/04 03:21:34;;;;;;;11.15;5.50;;;6.80;63.60;;;;;;5092705;28;20024;-69
2022/02/04 03:24:07;;;;;;;8.95;5.00;;;6.80;63.70;;;;;;5091898;28;20047;-69
2022/02/04 03:27:10;;;;;;;8.40;5.03;;;6.90;63.80;;;;;;5074800;28;20549;-69
2022/02/04 03:29:35;;;;;;;13.18;5.57;;;7.00;63.90;;;;;;5090411;28;20055;-69
2022/02/04 03:32:06;;;;;;;11.10;5.68;;;7.10;64.00;;;;;;5096542;28;20023;-69
2022/02/04 03:34:33;;;;;;;8.50;5.57;;;7.10;63.80;;;;;;5077577;28;20051;-68
2022/02/04 03:36:58;;;;;;;10.25;5.57;;;7.20;63.80;;;;;;5082756;28;20028;-68
2022/02/04 03:39:24;;;;;;;13.05;5.70;;;7.30;63.80;;;;;;5076032;28;20034;-68
2022/02/04 03:41:50;;;;;;;13.85;5.80;;;7.40;63.60;;;;;;5075911;28;20050;-69
2022/02/04 03:44:16;;;;;;;7.70;4.45;;;7.40;63.40;;;;;;5075576;28;20082;-68
2022/02/04 03:46:41;;;;;;;8.63;5.47;;;7.50;63.30;;;;;;5075908;28;20028;-68
2022/02/04 03:49:07;;;;;;;10.85;5.10;;;7.60;63.20;;;;;;5075454;28;20025;-68
2022/02/04 03:51:33;;;;;;;12.18;5.38;;;7.60;62.90;;;;;;5075334;28;20110;-68
2022/02/04 03:53:59;;;;;;;11.35;5.60;;;7.60;62.80;;;;;;5057722;28;20036;-68
2022/02/04 03:56:24;;;;;;;12.57;6.10;;;7.70;62.70;;;;;;5057620;28;20452;-68
2022/02/04 03:58:50;;;;;;;11.45;6.38;;;7.70;62.70;;;;;;5057657;28;20066;-69
2022/02/04 04:01:16;;;;;;;10.05;6.25;;;7.80;62.70;;;;;;5075516;28;20388;-68
2022/02/04 04:03:43;;;;;;;12.55;6.30;;;7.90;62.70;;;;;;5075515;28;20112;-68
2022/02/04 04:06:10;;;;;;;11.73;6.90;;;7.90;62.70;;;;;;5075539;28;20028;-70
2022/02/04 04:08:36;;;;;;;17.30;7.55;;;8.00;62.70;;;;;;5057502;28;20031;-69
2022/02/04 04:11:02;;;;;;;18.73;8.90;;;8.00;62.50;;;;;;5057434;28;20032;-69
2022/02/04 04:13:28;;;;;;;13.25;8.93;;;8.10;62.40;;;;;;5075350;28;20035;-69
2022/02/04 04:15:54;;;;;;;18.67;9.32;;;8.10;62.20;;;;;;5075244;28;20089;-68
2022/02/04 04:18:20;;;;;;;16.02;8.18;;;8.10;62.10;;;;;;5075297;28;20174;-68
2022/02/04 04:20:46;;;;;;;13.18;8.65;;;8.10;62.00;;;;;;5057282;28;20115;-69
2022/02/04 04:23:12;;;;;;;15.52;8.82;;;8.10;61.90;;;;;;5057049;28;20121;-70
2022/02/04 04:25:39;;;;;;;16.52;9.20;;;8.10;61.80;;;;;;5057002;28;20028;-68
2022/02/04 04:28:06;;;;;;;18.58;10.07;;;8.10;61.80;;;;;;5057099;28;20028;-68
2022/02/04 04:30:32;;;;;;;22.52;10.55;;;8.10;61.70;;;;;;5074918;28;20020;-68
2022/02/04 04:32:58;;;;;;;20.00;9.35;;;8.10;61.70;;;;;;5074681;28;20061;-68
2022/02/04 04:35:25;;;;;;;17.25;8.27;;;8.10;61.60;;;;;;5086715;28;20031;-68
2022/02/04 05:27:00;;;;;;;17.55;8.70;;;8.10;62.30;;;;;;5094106;28;19915;-68
2022/02/04 05:29:18;;;;;;;15.38;7.25;;;8.10;62.30;;;;;;5093562;28;20054;-68
2022/02/04 05:31:47;;;;;;;15.82;7.22;;;8.10;62.20;;;;;;5094167;28;20028;-68
2022/02/04 05:34:19;;;;;;;14.57;6.70;;;8.10;62.00;;;;;;5075324;28;20407;-68
2022/02/04 05:36:47;;;;;;;10.73;6.70;;;8.10;62.10;;;;;;5075468;28;20030;-68
2022/02/04 05:39:17;;;;;;;11.82;6.07;;;8.10;62.00;;;;;;5075802;28;20371;-70
2022/02/04 05:41:47;;;;;;;11.75;6.30;;;8.10;62.00;;;;;;5075667;28;20246;-68
2022/02/04 05:44:14;;;;;;;13.98;6.15;;;8.10;62.00;;;;;;5075632;28;20467;-68
2022/02/04 05:46:51;;;;;;;11.40;5.55;;;8.20;62.00;;;;;;5075634;28;20036;-68
2022/02/04 05:49:20;;;;;;;11.02;6.30;;;8.20;62.00;;;;;;5075775;28;20517;-69
2022/02/04 05:52:13;;;;;;;13.93;6.88;;;8.20;62.00;;;;;;5093406;28;20020;-68
2022/02/04 05:57:36;;;;;;;16.13;8.18;;;8.20;61.80;;;;;;5093719;28;20455;-69
2022/02/04 06:10:50;;;;;;;15.20;8.38;;;8.20;61.60;;;;;;5093190;28;20024;-68
2022/02/04 06:23:57;;;;;;;17.90;8.95;;;8.30;62.70;;;;;;5093029;28;20031;-68
2022/02/04 06:26:24;;;;;;;15.50;8.70;;;8.30;61.90;;;;;;5092892;28;20534;-68
2022/02/04 06:28:50;;;;;;;11.88;7.47;;;8.30;61.90;;;;;;5073825;28;20043;-69
2022/02/04 06:31:17;;;;;;;20.75;8.27;;;8.30;62.00;;;;;;5090961;28;20374;-69
2022/02/04 06:33:43;;;;;;;23.50;8.60;;;8.40;62.00;;;;;;5053201;28;20052;-69
2022/02/04 06:36:09;;;;;;;15.48;7.85;;;8.40;62.00;;;;;;5054278;28;20025;-68
2022/02/04 06:38:34;;;;;;;18.75;8.98;;;8.40;61.90;;;;;;5073029;28;20086;-68
2022/02/04 06:41:02;;;;;;;15.48;8.18;;;8.40;62.00;;;;;;5072780;28;20017;-68
2022/02/04 06:43:29;;;;;;;15.50;8.43;;;8.50;62.10;;;;;;5072573;28;20487;-68
2022/02/04 06:45:58;;;;;;;13.52;8.25;;;8.50;62.00;;;;;;5054922;28;20029;-68
2022/02/04 06:48:24;;;;;;;16.45;10.10;;;8.60;62.10;;;;;;5072906;28;20048;-68
2022/02/04 06:50:52;;;;;;;22.95;12.20;;;8.60;62.00;;;;;;5072963;28;20032;-68
2022/02/04 06:53:18;;;;;;;19.50;10.48;;;8.60;61.70;;;;;;5073114;28;20464;-69
2022/02/04 06:55:44;;;;;;;27.55;12.73;;;8.60;61.50;;;;;;5054477;28;20029;-69
2022/02/04 06:58:12;;;;;;;24.73;11.75;;;8.60;61.30;;;;;;5054860;28;20127;-69
2022/02/04 07:00:39;;;;;;;22.13;11.32;;;8.60;61.30;;;;;;5072596;28;20056;-69
2022/02/04 07:03:06;;;;;;;18.98;11.40;;;8.60;61.30;;;;;;5074054;28;20043;-69
2022/02/04 07:05:39;;;;;;;20.88;10.55;;;8.60;61.10;;;;;;5058687;28;20423;-68
2022/02/04 07:08:20;;;;;;;21.10;11.18;;;8.50;60.90;;;;;;5058649;28;20070;-69
2022/02/04 07:13:47;;;;;;;16.00;9.32;;;8.50;60.90;;;;;;5076453;28;20029;-69
2022/02/04 07:16:21;;;;;;;22.48;12.45;;;8.40;61.00;;;;;;5075362;28;20028;-70
2022/02/04 07:21:27;;;;;;;30.45;11.52;;;8.40;61.50;;;;;;5077108;28;20027;-69
2022/02/04 07:23:53;;;;;;;20.45;11.63;;;8.50;61.70;;;;;;5094794;28;20036;-70
2022/02/04 07:26:19;;;;;;;27.83;14.80;;;8.50;61.70;;;;;;5096186;28;20103;-68
2022/02/04 07:28:44;;;;;;;23.73;13.70;;;8.50;61.60;;;;;;5094794;28;20107;-69
2022/02/04 07:31:12;;;;;;;22.58;13.25;;;8.50;61.60;;;;;;5084533;28;20471;-69
2022/02/04 07:33:52;;;;;;;22.30;11.95;;;8.50;61.50;;;;;;5075879;28;20102;-69
2022/02/04 07:41:55;;;;;;;20.55;13.52;;;8.60;61.70;;;;;;5051930;28;20012;-69
2022/02/04 07:44:21;;;;;;;109.13;48.03;;;8.60;61.50;;;;;;5076067;28;20052;-69
2022/02/04 07:46:48;;;;;;;48.42;24.35;;;8.60;61.30;;;;;;5075632;28;20032;-69
2022/02/04 07:49:14;;;;;;;28.00;15.68;;;8.70;61.40;;;;;;5057145;28;20033;-69
2022/02/04 07:51:40;;;;;;;23.13;12.90;;;8.70;61.40;;;;;;5075498;28;20035;-70
2022/02/04 07:54:07;;;;;;;21.70;11.77;;;8.80;61.50;;;;;;5075710;28;20033;-70
2022/02/04 07:56:33;;;;;;;19.88;11.18;;;8.90;61.40;;;;;;5057676;28;20050;-69
2022/02/04 07:59:06;;;;;;;18.42;11.30;;;8.90;61.20;;;;;;5075485;28;20025;-69
2022/02/04 08:01:32;;;;;;;18.35;11.13;;;9.00;61.20;;;;;;5057592;28;20025;-69
2022/02/04 08:04:24;;;;;;;15.98;10.27;;;9.10;61.20;;;;;;5057194;28;20032;-69
2022/02/04 08:06:55;;;;;;;18.20;9.88;;;9.10;61.10;;;;;;5057342;28;20472;-69
2022/02/04 08:14:26;;;;;;;25.63;13.68;;;9.30;61.70;;;;;;5074858;28;20029;-69
2022/02/04 08:17:18;;;;;;;20.95;12.10;;;9.40;60.80;;;;;;5075352;28;20108;-70
2022/02/04 08:32:54;;;;;;;19.23;10.50;;;9.60;59.90;;;;;;5095315;28;20034;-69
2022/02/04 08:38:09;;;;;;;28.00;12.45;;;9.70;60.00;;;;;;5095076;28;20035;-69
2022/02/04 08:54:15;;;;;;;18.88;10.88;;;9.90;59.60;;;;;;5094809;28;20063;-70
2022/02/04 08:59:16;;;;;;;17.42;10.90;;;10.00;59.70;;;;;;5094643;28;20387;-70
2022/02/04 09:01:50;;;;;;;19.75;11.93;;;10.00;59.80;;;;;;5076562;28;20464;-69
2022/02/04 09:04:18;;;;;;;20.02;11.93;;;10.10;59.80;;;;;;5094240;28;20066;-69
2022/02/04 09:06:51;;;;;;;19.33;11.07;;;10.10;59.70;;;;;;5094249;28;20044;-69
2022/02/04 09:09:30;;;;;;;22.73;12.70;;;10.20;59.50;;;;;;5094903;28;20023;-70
2022/02/04 09:12:09;;;;;;;21.20;11.60;;;10.20;59.30;;;;;;5092190;28;20452;-69
2022/02/04 09:22:26;;;;;;;23.60;13.60;;;10.50;59.30;;;;;;5083566;28;20027;-70
2022/02/04 09:24:52;;;;;;;21.45;11.95;;;10.50;59.00;;;;;;5074791;28;20031;-70
2022/02/04 09:27:18;;;;;;;20.67;11.70;;;10.60;59.00;;;;;;5072571;28;20097;-69
2022/02/04 09:29:44;;;;;;;21.17;11.80;;;10.60;59.00;;;;;;5055988;28;20033;-68
2022/02/04 09:32:10;;;;;;;21.70;11.38;;;10.70;59.10;;;;;;5055826;28;20147;-69
2022/02/04 09:34:36;;;;;;;17.58;9.93;;;10.80;59.10;;;;;;5055326;28;20053;-69
2022/02/04 09:37:02;;;;;;;16.85;10.15;;;10.90;59.00;;;;;;5073803;28;20100;-69
2022/02/04 09:39:28;;;;;;;14.70;9.38;;;11.00;59.10;;;;;;5073467;28;20522;-69
2022/02/04 09:41:54;;;;;;;12.48;8.18;;;11.00;58.90;;;;;;5058486;28;20065;-70
2022/02/04 09:44:20;;;;;;;15.80;9.05;;;11.20;59.00;;;;;;5055858;28;20456;-69
2022/02/04 09:46:46;;;;;;;23.23;8.82;;;11.30;58.80;;;;;;5055326;28;20038;-69
2022/02/04 09:49:25;;;;;;;11.95;7.53;;;11.40;58.70;;;;;;5073314;28;20029;-69
2022/02/04 10:08:35;;;;;;;13.73;8.13;;;11.80;57.20;;;;;;5073098;28;20395;-69
2022/02/04 10:12:13;;;;;;;12.13;8.02;;;11.80;57.10;;;;;;5073349;28;20363;-69
2022/02/04 10:19:48;;;;;;;14.18;8.90;;;11.70;57.30;;;;;;5073282;28;20447;-71
2022/02/04 10:22:19;;;;;;;16.63;9.82;;;11.70;56.90;;;;;;5055277;28;20105;-70
2022/02/04 10:24:58;;;;;;;15.35;9.00;;;11.70;57.20;;;;;;5054997;28;20025;-70
2022/02/04 10:27:26;;;;;;;11.85;8.50;;;11.70;57.20;;;;;;5055158;28;20422;-70
2022/02/04 10:29:58;;;;;;;12.18;8.40;;;11.70;57.30;;;;;;5074868;28;20040;-70
2022/02/04 10:32:33;;;;;;;19.60;9.38;;;11.80;57.40;;;;;;5081006;28;20090;-70
2022/02/04 10:35:05;;;;;;;12.18;7.82;;;11.90;57.30;;;;;;5072112;28;20057;-70
2022/02/04 10:37:34;;;;;;;13.68;8.15;;;12.00;57.30;;;;;;5054356;28;20107;-70
2022/02/04 10:40:12;;;;;;;10.07;7.25;;;12.10;57.30;;;;;;5058843;28;20475;-70
2022/02/04 10:51:12;;;;;;;12.05;8.00;;;12.40;56.60;;;;;;5076514;28;20371;-70
2022/02/04 11:03:56;;;;;;;13.35;8.07;;;12.80;56.30;;;;;;5076277;28;20031;-71
2022/02/04 11:09:05;;;;;;;11.05;7.88;;;13.00;55.70;;;;;;5076502;28;20036;-70
2022/02/04 11:31:04;;;;;;;12.13;7.40;;;13.40;54.10;;;;;;5076011;28;20031;-71
2022/02/04 11:33:49;;;;;;;9.32;6.97;;;13.40;53.90;;;;;;5057560;28;20052;-72
2022/02/04 11:48:44;;;;;;;9.10;6.70;;;13.70;53.90;;;;;;5075565;28;20416;-70
2022/02/04 11:51:49;;;;;;;9.70;6.43;;;13.70;53.70;;;;;;5074851;28;20016;-70
2022/02/04 11:57:01;;;;;;;14.85;6.88;;;13.80;53.30;;;;;;5075529;28;20043;-70
2022/02/04 11:59:38;;;;;;;10.68;6.53;;;13.90;53.40;;;;;;5075660;28;20031;-70
2022/02/04 12:02:29;;;;;;;13.80;5.80;;;13.90;53.30;;;;;;5075362;28;20031;-70
2022/02/04 12:05:05;;;;;;;11.05;5.80;;;14.00;53.30;;;;;;5065676;28;20510;-70
2022/02/04 12:07:34;;;;;;;8.38;4.97;;;13.90;53.00;;;;;;5057360;28;20028;-70
2022/02/04 12:10:17;;;;;;;12.40;5.68;;;14.00;52.60;;;;;;5057378;28;20376;-70
2022/02/04 12:13:10;;;;;;;8.55;5.15;;;14.00;52.60;;;;;;5075323;28;20163;-70
2022/02/04 12:15:48;;;;;;;9.68;5.10;;;13.90;52.40;;;;;;5057559;28;20055;-71
2022/02/04 12:18:17;;;;;;;15.23;5.53;;;13.90;52.50;;;;;;5057342;28;20139;-70
2022/02/04 12:20:46;;;;;;;10.48;5.18;;;13.80;52.50;;;;;;5075231;28;20024;-70
2022/02/04 12:23:27;;;;;;;7.10;4.43;;;13.80;52.50;;;;;;5060692;28;20376;-70
2022/02/04 12:25:54;;;;;;;7.47;4.13;;;13.80;52.50;;;;;;5095215;28;20098;-69
2022/02/04 12:28:37;;;;;;;5.95;3.75;;;13.70;52.60;;;;;;5095224;28;20376;-71
2022/02/04 12:31:42;;;;;;;4.80;3.25;;;13.70;52.90;;;;;;5095262;28;20024;-68
2022/02/04 12:34:15;;;;;;;5.18;3.85;;;13.70;53.00;;;;;;5094845;28;20059;-71
2022/02/04 12:36:50;;;;;;;5.45;3.70;;;13.70;53.00;;;;;;5076922;28;20028;-69
2022/02/04 12:39:23;;;;;;;13.18;4.13;;;13.80;52.90;;;;;;5095039;28;20372;-69
2022/02/04 12:41:58;;;;;;;6.18;3.95;;;13.80;52.90;;;;;;5076788;28;20107;-68
2022/02/04 12:44:36;;;;;;;;;;;13.80;52.40;;;;;;5077064;28;20051;-69
2022/02/04 12:47:07;;;;;;;5.93;4.05;;;13.80;53.20;;;;;;5094582;28;19914;-68
2022/02/04 12:49:44;;;;;;;5.15;3.90;;;13.80;52.30;;;;;;5094436;28;20438;-68
2022/02/04 12:52:25;;;;;;;6.10;3.95;;;13.80;52.50;;;;;;5076674;28;20066;-70
2022/02/04 12:55:09;;;;;;;5.78;4.32;;;13.90;52.80;;;;;;5094475;28;20387;-69
2022/02/04 12:57:42;;;;;;;5.32;3.90;;;13.90;52.50;;;;;;5094396;28;20516;-69
2022/02/04 13:08:09;;;;;;;10.38;4.70;;;14.40;52.00;;;;;;5094536;28;20034;-70
2022/02/04 13:10:36;;;;;;;8.23;4.80;;;14.50;51.60;;;;;;5094137;28;20040;-69
2022/02/04 13:13:08;;;;;;;6.32;4.90;;;14.50;51.10;;;;;;5076175;28;20078;-69
2022/02/04 13:15:37;;;;;;;6.03;4.70;;;14.50;50.40;;;;;;5094338;28;20418;-69
2022/02/04 13:18:11;;;;;;;6.65;5.13;;;14.50;50.90;;;;;;5076116;28;20035;-69
2022/02/04 13:20:40;;;;;;;10.88;5.95;;;14.60;50.20;;;;;;5076164;28;20060;-69
2022/02/04 13:23:27;;;;;;;6.82;4.95;;;14.50;49.30;;;;;;5094342;28;20028;-70
2022/02/04 13:25:57;;;;;;;9.30;5.82;;;14.50;49.30;;;;;;5075973;28;20027;-71
2022/02/04 13:28:37;;;;;;;11.20;5.60;;;14.50;49.00;;;;;;5093825;28;20097;-69
2022/02/04 13:31:08;;;;;;;8.77;5.22;;;14.40;49.20;;;;;;5075482;28;20032;-69
2022/02/04 13:33:42;;;;;;;12.75;5.43;;;14.30;48.80;;;;;;5093763;28;20143;-69
2022/02/04 13:36:23;;;;;;;9.27;5.80;;;14.30;48.60;;;;;;5075848;28;20505;-70
2022/02/04 13:39:12;;;;;;;8.07;5.25;;;14.10;48.60;;;;;;5094117;28;20066;-69
2022/02/04 13:42:00;;;;;;;6.97;5.60;;;14.10;48.80;;;;;;5094290;28;20112;-69
2022/02/04 14:03:24;;;;;;;8.98;5.22;;;14.20;48.40;;;;;;5093273;28;20028;-69
2022/02/04 14:06:13;;;;;;;11.57;5.60;;;14.20;47.90;;;;;;5075457;28;20482;-69
2022/02/04 14:09:04;;;;;;;9.52;6.63;;;14.20;47.90;;;;;;5093572;28;20107;-69
2022/02/04 14:11:35;;;;;;;8.30;5.70;;;14.30;47.80;;;;;;5075382;28;20095;-69
2022/02/04 14:14:08;;;;;;;9.35;6.28;;;14.30;47.80;;;;;;5092986;28;20467;-69
2022/02/04 14:16:34;;;;;;;7.95;5.72;;;14.30;47.60;;;;;;5075359;28;20032;-69
2022/02/04 14:19:00;;;;;;;8.40;6.47;;;14.30;47.60;;;;;;5093163;28;20047;-69
2022/02/04 14:21:26;;;;;;;7.05;4.95;;;14.30;47.30;;;;;;5062652;28;20032;-69
2022/02/04 14:23:56;;;;;;;7.72;5.72;;;14.20;47.40;;;;;;5072873;28;20032;-70
2022/02/04 14:28:55;;;;;;;7.38;5.43;;;14.10;47.20;;;;;;5073127;28;20032;-69
2022/02/04 14:31:38;;;;;;;8.80;5.57;;;14.00;47.60;;;;;;5072935;28;20021;-69
2022/02/04 14:50:34;;;;;;;7.72;5.18;;;13.50;48.50;;;;;;5073007;28;20039;-69
2022/02/04 14:53:03;;;;;;;6.85;4.80;;;13.40;48.60;;;;;;5072462;28;20020;-68
2022/02/04 15:01:10;;;;;;;;;;;13.20;49.00;;;;;;5073324;28;20436;-68
2022/02/04 15:03:39;;;;;;;7.38;4.60;;;13.20;49.60;;;;;;5072690;28;19952;-68
2022/02/04 15:06:11;;;;;;;9.02;4.72;;;13.20;49.40;;;;;;5054465;28;20032;-68
2022/02/04 15:08:39;;;;;;;7.65;4.78;;;13.20;49.30;;;;;;5072750;28;20021;-68
2022/02/04 15:11:12;;;;;;;6.50;4.68;;;13.20;49.40;;;;;;5072217;28;20477;-70
2022/02/04 15:13:39;;;;;;;7.97;5.15;;;13.20;49.60;;;;;;5072316;28;20499;-68
2022/02/04 15:16:07;;;;;;;9.63;5.35;;;13.20;49.40;;;;;;5072533;28;20461;-68
2022/02/04 15:18:40;;;;;;;10.25;5.60;;;13.20;49.60;;;;;;5054403;28;20408;-69
2022/02/04 15:21:15;;;;;;;8.43;5.07;;;13.20;49.40;;;;;;5092741;28;20383;-69
2022/02/04 15:23:43;;;;;;;5.68;4.25;;;13.20;49.30;;;;;;5075127;28;20492;-68
2022/02/04 15:26:11;;;;;;;10.73;4.00;;;13.10;49.10;;;;;;5078025;28;20375;-68
2022/02/04 15:28:57;;;;;;;5.47;3.95;;;13.10;49.20;;;;;;5096438;28;20020;-68
2022/02/04 15:33:59;;;;;;;8.18;4.38;;;13.00;49.40;;;;;;5096157;28;20399;-68
2022/02/04 15:36:40;;;;;;;6.90;4.22;;;13.00;49.30;;;;;;5096188;28;20021;-68
2022/02/04 15:39:08;;;;;;;8.77;5.05;;;13.00;49.40;;;;;;5096636;28;20044;-69
2022/02/04 15:41:36;;;;;;;11.98;6.22;;;12.90;49.60;;;;;;5096123;28;20027;-68
2022/02/04 15:44:11;;;;;;;13.98;5.72;;;12.90;49.70;;;;;;5077833;28;20032;-68
2022/02/04 15:49:43;;;;;;;11.93;5.40;;;12.90;50.10;;;;;;5095916;28;19990;-68
2022/02/04 15:52:42;;;;;;;15.63;6.40;;;12.80;49.80;;;;;;5095872;28;20016;-70
2022/02/04 15:57:50;;;;;;;7.78;4.93;;;12.60;49.90;;;;;;5095639;28;20024;-69
2022/02/04 16:05:36;;;;;;;9.15;4.90;;;12.30;50.30;;;;;;5095924;28;20118;-69
2022/02/04 16:08:02;;;;;;;8.05;4.93;;;12.20;50.40;;;;;;5077558;28;20032;-68
2022/02/04 16:10:48;;;;;;;7.20;4.10;;;12.10;50.60;;;;;;5095474;28;20358;-68
2022/02/04 16:13:29;;;;;;;6.38;4.18;;;11.90;50.70;;;;;;5095596;28;20020;-68
2022/02/04 16:16:08;;;;;;;7.15;4.72;;;11.80;50.80;;;;;;5095539;28;20016;-70
2022/02/04 16:18:42;;;;;;;7.20;4.70;;;11.70;51.00;;;;;;5076792;28;20028;-69
2022/02/04 16:21:21;;;;;;;6.22;3.80;;;11.60;51.20;;;;;;5095161;28;20485;-68
2022/02/04 16:24:15;;;;;;;7.65;4.78;;;11.50;51.30;;;;;;5095339;28;20436;-68
2022/02/04 16:26:55;;;;;;;6.80;4.00;;;11.30;51.50;;;;;;5095346;28;20036;-69
2022/02/04 16:29:21;;;;;;;8.68;5.35;;;11.20;51.70;;;;;;5077161;28;20061;-69
2022/02/04 16:31:47;;;;;;;7.00;4.45;;;11.10;52.00;;;;;;5095285;28;20023;-69
2022/02/04 16:34:14;;;;;;;9.70;4.28;;;11.00;52.20;;;;;;5094759;28;20067;-69
2022/02/04 16:36:44;;;;;;;6.78;4.35;;;10.90;52.40;;;;;;5076561;28;20436;-69
2022/02/04 16:39:11;;;;;;;7.53;4.93;;;10.80;52.60;;;;;;5076891;28;20115;-69
2022/02/04 16:41:50;;;;;;;8.35;4.80;;;10.70;52.70;;;;;;5077050;28;20024;-69
2022/02/04 16:44:16;;;;;;;6.72;4.80;;;10.60;52.80;;;;;;5076758;28;20036;-70
2022/02/04 16:46:42;;;;;;;9.60;4.72;;;10.60;53.50;;;;;;5076756;28;20016;-69
2022/02/04 16:49:08;;;;;;;10.18;5.35;;;10.50;53.20;;;;;;5094886;28;20077;-69
2022/02/04 16:51:34;;;;;;;12.40;5.82;;;10.40;53.30;;;;;;5076719;28;20024;-70
2022/02/04 16:54:00;;;;;;;14.02;8.10;;;10.30;53.30;;;;;;5076580;28;20035;-69
2022/02/04 16:56:25;;;;;;;18.20;9.07;;;10.30;53.60;;;;;;5094535;28;20028;-69
2022/02/04 16:58:51;;;;;;;34.72;16.48;;;10.20;53.80;;;;;;5076445;28;20475;-69
2022/02/04 17:01:18;;;;;;;99.32;42.33;;;10.10;54.00;;;;;;5076490;28;20426;-70
2022/02/04 17:03:44;;;;;;;108.10;48.78;;;10.10;54.50;;;;;;5076449;28;20088;-70
2022/02/04 17:06:11;;;;;;;58.22;29.17;;;10.00;54.70;;;;;;5094327;28;20081;-69
2022/02/04 17:08:49;;;;;;;50.35;27.10;;;10.00;54.80;;;;;;5076420;28;20028;-69
2022/02/04 17:11:20;;;;;;;30.05;17.08;;;9.90;55.00;;;;;;5094333;28;20356;-69
2022/02/04 17:13:46;;;;;;;16.95;10.80;;;9.90;54.90;;;;;;5076375;28;20099;-69
2022/02/04 17:16:12;;;;;;;38.40;21.50;;;9.80;54.90;;;;;;5094337;28;20020;-69
2022/02/04 17:18:38;;;;;;;103.00;49.55;;;9.80;55.20;;;;;;5094151;28;20663;-69
2022/02/04 17:21:05;;;;;;;107.55;50.90;;;9.70;55.50;;;;;;5076105;28;20030;-69
2022/02/04 17:23:41;;;;;;;71.65;31.75;;;9.60;55.80;;;;;;5093939;28;20028;-70
2022/02/04 17:26:09;;;;;;;36.28;18.58;;;9.60;56.00;;;;;;5093923;28;20080;-69
2022/02/04 17:28:35;;;;;;;15.55;8.02;;;9.60;56.20;;;;;;5076018;28;20028;-69
2022/02/04 17:31:01;;;;;;;21.40;9.82;;;9.50;56.40;;;;;;5094173;28;20032;-69
2022/02/04 17:33:28;;;;;;;18.67;11.57;;;9.50;56.60;;;;;;5075462;28;20410;-68
2022/02/04 17:35:56;;;;;;;12.65;7.55;;;9.40;56.60;;;;;;5093971;28;20028;-68
2022/02/04 17:38:23;;;;;;;14.35;6.22;;;9.40;56.70;;;;;;5093592;28;20024;-68
2022/02/04 17:40:49;;;;;;;9.07;5.80;;;9.30;56.60;;;;;;5075676;28;20020;-68
2022/02/04 17:43:16;;;;;;;16.60;8.98;;;9.30;56.60;;;;;;5075766;28;20028;-69
2022/02/04 17:45:42;;;;;;;17.58;10.73;;;9.20;56.70;;;;;;5093649;28;20024;-69
2022/02/04 17:48:18;;;;;;;27.08;12.65;;;9.20;56.90;;;;;;5074899;28;20020;-69
2022/02/04 17:51:02;;;;;;;14.73;8.32;;;9.10;57.00;;;;;;5075676;28;20487;-70
2022/02/04 17:53:47;;;;;;;13.98;7.82;;;9.10;57.00;;;;;;5093869;28;20052;-69
2022/02/04 17:56:30;;;;;;;11.63;6.32;;;9.00;57.00;;;;;;5075644;28;20468;-69
2022/02/04 17:59:15;;;;;;;16.08;7.38;;;9.00;57.30;;;;;;5093738;28;20038;-70
2022/02/04 18:07:07;;;;;;;13.32;7.95;;;8.80;57.80;;;;;;5093486;28;20165;-69
2022/02/04 18:09:33;;;;;;;11.15;6.40;;;8.80;57.90;;;;;;5075381;28;20039;-69
2022/02/04 18:12:00;;;;;;;13.70;6.13;;;8.80;57.80;;;;;;5075441;28;20460;-69
2022/02/04 18:14:26;;;;;;;13.32;8.32;;;8.80;57.70;;;;;;5075149;28;20028;-69
2022/02/04 18:16:52;;;;;;;18.45;8.68;;;8.70;57.80;;;;;;5093185;28;20020;-70
2022/02/04 18:19:18;;;;;;;10.98;6.65;;;8.70;58.00;;;;;;5093504;28;20099;-69
2022/02/04 18:21:43;;;;;;;15.10;7.78;;;8.60;58.00;;;;;;5075325;28;20483;-70
2022/02/04 18:24:10;;;;;;;15.20;7.78;;;8.60;58.20;;;;;;5075019;28;20085;-69
2022/02/04 18:26:36;;;;;;;17.65;7.28;;;8.60;58.30;;;;;;5093103;28;20016;-69
2022/02/04 18:29:04;;;;;;;13.48;6.80;;;8.50;58.30;;;;;;5075302;28;20028;-70
2022/02/04 18:31:31;;;;;;;14.43;7.53;;;8.50;58.60;;;;;;5075122;28;20056;-70
2022/02/04 18:33:58;;;;;;;13.48;5.90;;;8.40;58.70;;;;;;5074718;28;20060;-70
2022/02/04 18:36:24;;;;;;;11.65;6.07;;;8.40;58.70;;;;;;5075254;28;20069;-69
2022/02/04 18:39:06;;;;;;;15.88;7.07;;;8.40;58.80;;;;;;5093160;28;20025;-70
2022/02/04 18:44:14;;;;;;;14.35;8.63;;;8.40;59.00;;;;;;5093173;28;20118;-69
2022/02/04 18:46:53;;;;;;;16.08;8.48;;;8.30;59.00;;;;;;5074824;28;20024;-70
2022/02/04 18:59:22;;;;;;;12.55;6.22;;;8.20;59.10;;;;;;5094852;28;20041;-71
2022/02/04 19:01:48;;;;;;;11.18;7.00;;;8.20;59.40;;;;;;5078869;28;20387;-69
2022/02/04 19:04:18;;;;;;;13.30;6.70;;;8.10;59.60;;;;;;5078716;28;20467;-69
2022/02/04 19:06:51;;;;;;;11.63;6.93;;;8.10;59.60;;;;;;5096763;28;20028;-70
2022/02/04 19:09:16;;;;;;;12.05;7.18;;;8.10;59.70;;;;;;5078471;28;20110;-70
2022/02/04 19:11:47;;;;;;;9.88;6.20;;;8.10;59.60;;;;;;5096908;28;20440;-69
2022/02/04 19:14:18;;;;;;;11.27;6.65;;;8.10;59.70;;;;;;5078505;28;20035;-68
2022/02/04 19:22:25;;;;;;;10.73;6.70;;;8.00;59.80;;;;;;5014307;28;20022;-68
2022/02/04 19:24:52;;;;;;;10.85;6.55;;;8.00;60.00;;;;;;5014220;28;20068;-69
2022/02/04 19:27:18;;;;;;;12.30;6.57;;;8.00;60.10;;;;;;5014329;28;20034;-70